AAL1753 KATL-KCLT
Flight info
| Callsign | AAL1753 |
|---|---|
| Flight time | 0h 42m |
| Altitude | 27000 |
| Route | PHIIL3 PHIIL CNTLR JONZE5 |
| Aircraft | A319/M-SDE3GIRW/LB1 |
Departure
| Time | 2026-05-08 00:09 |
|---|---|
| Airport | Hartsfield Jackson Atlanta International Airport (KATL) |
Arrival
| Time | 2026-05-08 00:51 |
|---|---|
| Airport | Charlotte Douglas International Airport (KCLT) |
| Time | Latitude | Longitude | Altitude | Speed | Heading |
|---|---|---|---|---|---|
| 2026-05-07 23:31 | 33.64155 | -84.42886 | 1036 ft | 0 kts | 284° |
| 2026-05-07 23:41 | 33.64155 | -84.42885 | 1036 ft | 0 kts | 284° |
| 2026-05-07 23:49 | 33.64154 | -84.42885 | 1035 ft | 0 kts | 284° |
| 2026-05-07 23:57 | 33.64154 | -84.42884 | 1035 ft | 1 kts | 284° |
| 2026-05-07 23:57 | 33.64147 | -84.42855 | 1035 ft | 4 kts | 291° |
| 2026-05-07 23:57 | 33.64136 | -84.42826 | 1035 ft | 4 kts | 308° |
| 2026-05-07 23:57 | 33.64117 | -84.42809 | 1035 ft | 2 kts | 359° |
| 2026-05-07 23:58 | 33.64115 | -84.42809 | 1035 ft | 0 kts | 0° |
| 2026-05-08 00:02 | 33.64119 | -84.42809 | 1035 ft | 2 kts | 360° |
| 2026-05-08 00:03 | 33.64152 | -84.42809 | 1038 ft | 8 kts | 0° |
| 2026-05-08 00:03 | 33.64225 | -84.42809 | 1036 ft | 13 kts | 0° |
| 2026-05-08 00:03 | 33.64324 | -84.42808 | 1036 ft | 15 kts | 0° |
| 2026-05-08 00:03 | 33.64431 | -84.42803 | 1035 ft | 16 kts | 18° |
| 2026-05-08 00:04 | 33.64468 | -84.42687 | 1035 ft | 16 kts | 87° |
| 2026-05-08 00:04 | 33.64469 | -84.42551 | 1035 ft | 17 kts | 90° |
| 2026-05-08 00:04 | 33.64469 | -84.42406 | 1035 ft | 18 kts | 90° |
| 2026-05-08 00:04 | 33.64477 | -84.42256 | 1035 ft | 18 kts | 70° |
| 2026-05-08 00:05 | 33.64536 | -84.42121 | 1035 ft | 19 kts | 69° |
| 2026-05-08 00:05 | 33.64542 | -84.41965 | 1035 ft | 19 kts | 90° |
| 2026-05-08 00:05 | 33.64543 | -84.41807 | 1036 ft | 19 kts | 90° |
| 2026-05-08 00:05 | 33.64543 | -84.41648 | 1036 ft | 19 kts | 89° |
| 2026-05-08 00:06 | 33.64543 | -84.41486 | 1036 ft | 20 kts | 90° |
| 2026-05-08 00:06 | 33.64543 | -84.41322 | 1036 ft | 20 kts | 90° |
| 2026-05-08 00:06 | 33.64543 | -84.41154 | 1036 ft | 20 kts | 90° |
| 2026-05-08 00:06 | 33.64543 | -84.40982 | 1035 ft | 21 kts | 90° |
| 2026-05-08 00:07 | 33.64547 | -84.40839 | 1035 ft | 15 kts | 79° |
| 2026-05-08 00:07 | 33.64570 | -84.40719 | 1035 ft | 15 kts | 89° |
| 2026-05-08 00:07 | 33.64580 | -84.40596 | 1034 ft | 9 kts | 62° |
| 2026-05-08 00:07 | 33.64583 | -84.40592 | 1034 ft | 0 kts | 57° |
| 2026-05-08 00:08 | 33.64589 | -84.40585 | 1034 ft | 4 kts | 41° |
| 2026-05-08 00:08 | 33.64633 | -84.40573 | 1033 ft | 9 kts | 2° |
| 2026-05-08 00:08 | 33.64680 | -84.40605 | 1033 ft | 9 kts | 277° |
| 2026-05-08 00:08 | 33.64680 | -84.40628 | 1033 ft | 0 kts | 270° |
| 2026-05-08 00:09 | 33.64680 | -84.40668 | 1033 ft | 22 kts | 270° |
| 2026-05-08 00:09 | 33.64680 | -84.41197 | 1036 ft | 101 kts | 270° |
| 2026-05-08 00:09 | 33.64679 | -84.42295 | 1052 ft | 157 kts | 270° |
| 2026-05-08 00:09 | 33.64687 | -84.43602 | 1732 ft | 155 kts | 275° |
| 2026-05-08 00:10 | 33.64695 | -84.44894 | 2482 ft | 155 kts | 273° |
| 2026-05-08 00:10 | 33.64702 | -84.46171 | 3224 ft | 154 kts | 272° |
| 2026-05-08 00:10 | 33.64712 | -84.47456 | 3950 ft | 153 kts | 272° |
| 2026-05-08 00:10 | 33.64725 | -84.48773 | 4478 ft | 167 kts | 272° |
| 2026-05-08 00:11 | 33.64739 | -84.50226 | 4843 ft | 189 kts | 272° |
| 2026-05-08 00:11 | 33.64715 | -84.51944 | 5147 ft | 216 kts | 266° |
| 2026-05-08 00:11 | 33.64543 | -84.53829 | 5616 ft | 240 kts | 264° |
| 2026-05-08 00:11 | 33.64378 | -84.55558 | 6337 ft | 248 kts | 264° |
| 2026-05-08 00:12 | 33.64187 | -84.57626 | 7334 ft | 249 kts | 264° |
| 2026-05-08 00:12 | 33.63992 | -84.59694 | 8381 ft | 249 kts | 264° |
| 2026-05-08 00:12 | 33.63790 | -84.61761 | 9453 ft | 249 kts | 264° |
| 2026-05-08 00:12 | 33.63579 | -84.63833 | 10309 ft | 257 kts | 264° |
| 2026-05-08 00:13 | 33.63353 | -84.66047 | 10784 ft | 275 kts | 265° |
| 2026-05-08 00:13 | 33.63109 | -84.68345 | 11615 ft | 279 kts | 264° |
| 2026-05-08 00:13 | 33.62850 | -84.70641 | 12586 ft | 278 kts | 265° |
| 2026-05-08 00:13 | 33.62570 | -84.72944 | 13570 ft | 278 kts | 264° |
| 2026-05-08 00:14 | 33.62279 | -84.75232 | 14440 ft | 278 kts | 264° |
| 2026-05-08 00:14 | 33.61991 | -84.77525 | 15220 ft | 279 kts | 264° |
| 2026-05-08 00:14 | 33.61717 | -84.79835 | 15974 ft | 281 kts | 264° |
| 2026-05-08 00:14 | 33.61456 | -84.82167 | 16729 ft | 283 kts | 264° |
| 2026-05-08 00:15 | 33.60852 | -84.84433 | 17461 ft | 293 kts | 246° |
| 2026-05-08 00:15 | 33.59456 | -84.86303 | 18176 ft | 315 kts | 225° |
| 2026-05-08 00:15 | 33.57338 | -84.87326 | 18806 ft | 350 kts | 200° |
| 2026-05-08 00:15 | 33.54796 | -84.87112 | 19383 ft | 389 kts | 175° |
| 2026-05-08 00:16 | 33.52298 | -84.85551 | 19942 ft | 425 kts | 150° |
| 2026-05-08 00:16 | 33.50311 | -84.82782 | 20478 ft | 454 kts | 126° |
| 2026-05-08 00:16 | 33.49211 | -84.79175 | 21050 ft | 470 kts | 102° |
| 2026-05-08 00:16 | 33.48977 | -84.75253 | 21624 ft | 475 kts | 86° |
| 2026-05-08 00:17 | 33.49416 | -84.71325 | 22186 ft | 478 kts | 78° |
| 2026-05-08 00:17 | 33.49998 | -84.67383 | 22749 ft | 482 kts | 77° |
| 2026-05-08 00:17 | 33.50623 | -84.63423 | 23301 ft | 486 kts | 77° |
| 2026-05-08 00:17 | 33.51263 | -84.59435 | 23798 ft | 490 kts | 77° |
| 2026-05-08 00:18 | 33.51911 | -84.55404 | 24260 ft | 494 kts | 77° |
| 2026-05-08 00:18 | 33.52552 | -84.51399 | 24719 ft | 497 kts | 77° |
| 2026-05-08 00:18 | 33.53198 | -84.47309 | 25159 ft | 501 kts | 77° |
| 2026-05-08 00:18 | 33.53837 | -84.43189 | 25586 ft | 505 kts | 77° |
| 2026-05-08 00:19 | 33.54477 | -84.39044 | 26020 ft | 508 kts | 77° |
| 2026-05-08 00:19 | 33.55123 | -84.34862 | 26428 ft | 511 kts | 77° |
| 2026-05-08 00:19 | 33.55784 | -84.30605 | 26824 ft | 515 kts | 77° |
| 2026-05-08 00:19 | 33.56432 | -84.26435 | 26977 ft | 516 kts | 77° |
| 2026-05-08 00:20 | 33.57077 | -84.22266 | 27005 ft | 500 kts | 77° |
| 2026-05-08 00:20 | 33.57689 | -84.18278 | 27001 ft | 490 kts | 77° |
| 2026-05-08 00:20 | 33.58314 | -84.14210 | 26992 ft | 487 kts | 77° |
| 2026-05-08 00:20 | 33.58930 | -84.10221 | 26989 ft | 486 kts | 77° |
| 2026-05-08 00:21 | 33.59544 | -84.06239 | 26989 ft | 485 kts | 77° |
| 2026-05-08 00:21 | 33.60160 | -84.02262 | 26992 ft | 485 kts | 77° |
| 2026-05-08 00:21 | 33.60778 | -83.98283 | 27000 ft | 485 kts | 77° |
| 2026-05-08 00:21 | 33.61386 | -83.94309 | 26996 ft | 485 kts | 77° |
| 2026-05-08 00:22 | 33.61991 | -83.90321 | 26995 ft | 485 kts | 77° |
| 2026-05-08 00:22 | 33.62592 | -83.86332 | 26996 ft | 485 kts | 77° |
| 2026-05-08 00:22 | 33.63194 | -83.82323 | 27003 ft | 495 kts | 77° |
| 2026-05-08 00:22 | 33.63820 | -83.78196 | 27005 ft | 512 kts | 77° |
| 2026-05-08 00:23 | 33.64473 | -83.73929 | 27000 ft | 527 kts | 77° |
| 2026-05-08 00:23 | 33.65134 | -83.69550 | 26990 ft | 540 kts | 78° |
| 2026-05-08 00:23 | 33.65804 | -83.65062 | 26987 ft | 552 kts | 78° |
| 2026-05-08 00:23 | 33.66575 | -83.60513 | 26983 ft | 560 kts | 71° |
| 2026-05-08 00:24 | 33.67932 | -83.56120 | 26977 ft | 563 kts | 59° |
| 2026-05-08 00:24 | 33.69836 | -83.52001 | 26964 ft | 565 kts | 53° |
| 2026-05-08 00:24 | 33.71809 | -83.47971 | 26964 ft | 568 kts | 54° |
| 2026-05-08 00:24 | 33.73804 | -83.43878 | 26982 ft | 568 kts | 54° |
| 2026-05-08 00:25 | 33.75793 | -83.39766 | 26973 ft | 569 kts | 54° |
| 2026-05-08 00:25 | 33.77779 | -83.35655 | 26976 ft | 569 kts | 54° |
| 2026-05-08 00:25 | 33.79775 | -83.31542 | 26982 ft | 569 kts | 54° |
| 2026-05-08 00:25 | 33.81771 | -83.27430 | 26983 ft | 570 kts | 54° |
| 2026-05-08 00:26 | 33.83772 | -83.23318 | 26983 ft | 569 kts | 53° |
| 2026-05-08 00:26 | 33.85834 | -83.19250 | 26982 ft | 568 kts | 52° |
| 2026-05-08 00:26 | 33.87973 | -83.15260 | 26978 ft | 566 kts | 50° |
| 2026-05-08 00:26 | 33.90162 | -83.11325 | 26973 ft | 565 kts | 49° |
| 2026-05-08 00:27 | 33.92373 | -83.07418 | 26970 ft | 565 kts | 49° |
| 2026-05-08 00:27 | 33.94583 | -83.03496 | 26959 ft | 565 kts | 49° |
| 2026-05-08 00:27 | 33.96765 | -82.99563 | 26949 ft | 566 kts | 50° |
| 2026-05-08 00:27 | 33.98932 | -82.95604 | 26951 ft | 566 kts | 50° |
| 2026-05-08 00:28 | 34.01080 | -82.91627 | 26952 ft | 563 kts | 51° |
| 2026-05-08 00:28 | 34.03152 | -82.87735 | 26971 ft | 540 kts | 51° |
| 2026-05-08 00:28 | 34.05129 | -82.83994 | 26969 ft | 519 kts | 50° |
| 2026-05-08 00:28 | 34.07034 | -82.80398 | 26970 ft | 499 kts | 50° |
| 2026-05-08 00:29 | 34.08258 | -82.78098 | 26969 ft | 487 kts | 49° |
| 2026-05-08 00:29 | 34.10079 | -82.74707 | 26970 ft | 476 kts | 49° |
| 2026-05-08 00:29 | 34.11886 | -82.71377 | 26975 ft | 472 kts | 49° |
| 2026-05-08 00:29 | 34.13686 | -82.68072 | 26967 ft | 471 kts | 49° |
| 2026-05-08 00:30 | 34.15488 | -82.64762 | 26964 ft | 471 kts | 49° |
| 2026-05-08 00:30 | 34.17280 | -82.61450 | 26959 ft | 472 kts | 49° |
| 2026-05-08 00:30 | 34.19067 | -82.58126 | 26951 ft | 472 kts | 49° |
| 2026-05-08 00:30 | 34.20847 | -82.54797 | 26945 ft | 472 kts | 49° |
| 2026-05-08 00:31 | 34.22625 | -82.51465 | 26768 ft | 473 kts | 49° |
| 2026-05-08 00:31 | 34.24420 | -82.48104 | 26107 ft | 477 kts | 49° |
| 2026-05-08 00:31 | 34.26223 | -82.44727 | 25561 ft | 478 kts | 49° |
| 2026-05-08 00:31 | 34.28002 | -82.41392 | 25055 ft | 478 kts | 49° |
| 2026-05-08 00:32 | 34.29797 | -82.38021 | 24739 ft | 472 kts | 50° |
| 2026-05-08 00:32 | 34.31551 | -82.34707 | 24379 ft | 467 kts | 49° |
| 2026-05-08 00:32 | 34.33313 | -82.31395 | 23822 ft | 469 kts | 49° |
| 2026-05-08 00:32 | 34.35077 | -82.28079 | 23362 ft | 467 kts | 49° |
| 2026-05-08 00:33 | 34.36826 | -82.24779 | 22854 ft | 465 kts | 50° |
| 2026-05-08 00:33 | 34.38564 | -82.21496 | 22387 ft | 461 kts | 50° |
| 2026-05-08 00:33 | 34.40287 | -82.18232 | 21925 ft | 458 kts | 50° |
| 2026-05-08 00:33 | 34.41995 | -82.14995 | 21471 ft | 455 kts | 50° |
| 2026-05-08 00:34 | 34.43690 | -82.11784 | 21023 ft | 451 kts | 49° |
| 2026-05-08 00:34 | 34.45376 | -82.08592 | 20582 ft | 448 kts | 49° |
| 2026-05-08 00:34 | 34.47050 | -82.05421 | 20147 ft | 445 kts | 49° |
| 2026-05-08 00:34 | 34.48712 | -82.02276 | 19719 ft | 442 kts | 49° |
| 2026-05-08 00:35 | 34.50361 | -81.99152 | 19295 ft | 438 kts | 49° |
| 2026-05-08 00:35 | 34.51997 | -81.96044 | 18887 ft | 436 kts | 49° |
| 2026-05-08 00:35 | 34.53621 | -81.92959 | 18492 ft | 433 kts | 49° |
| 2026-05-08 00:35 | 34.55238 | -81.89890 | 18079 ft | 430 kts | 49° |
| 2026-05-08 00:36 | 34.56836 | -81.86848 | 17659 ft | 426 kts | 50° |
| 2026-05-08 00:36 | 34.58419 | -81.83825 | 17259 ft | 421 kts | 50° |
| 2026-05-08 00:36 | 34.59979 | -81.80844 | 16880 ft | 417 kts | 50° |
| 2026-05-08 00:36 | 34.61520 | -81.77905 | 16602 ft | 404 kts | 50° |
| 2026-05-08 00:37 | 34.62987 | -81.75083 | 16338 ft | 388 kts | 50° |
| 2026-05-08 00:37 | 34.64410 | -81.72336 | 15874 ft | 380 kts | 50° |
| 2026-05-08 00:37 | 34.65797 | -81.69681 | 15383 ft | 374 kts | 51° |
| 2026-05-08 00:38 | 34.68596 | -81.64362 | 14169 ft | 370 kts | 52° |
| 2026-05-08 00:38 | 34.69965 | -81.61753 | 13661 ft | 364 kts | 52° |
| 2026-05-08 00:38 | 34.71309 | -81.59174 | 13094 ft | 359 kts | 53° |
| 2026-05-08 00:38 | 34.72632 | -81.56623 | 12555 ft | 353 kts | 53° |
| 2026-05-08 00:39 | 34.73918 | -81.54132 | 12154 ft | 343 kts | 53° |
| 2026-05-08 00:39 | 34.75171 | -81.51703 | 11788 ft | 333 kts | 54° |
| 2026-05-08 00:39 | 34.76319 | -81.49300 | 11436 ft | 325 kts | 57° |
| 2026-05-08 00:39 | 34.77377 | -81.46906 | 11070 ft | 319 kts | 58° |
| 2026-05-08 00:40 | 34.78378 | -81.44402 | 10713 ft | 335 kts | 69° |
| 2026-05-08 00:40 | 34.79042 | -81.41679 | 10372 ft | 336 kts | 72° |
| 2026-05-08 00:40 | 34.79692 | -81.38972 | 10119 ft | 332 kts | 72° |
| 2026-05-08 00:40 | 34.80345 | -81.36276 | 9711 ft | 332 kts | 72° |
| 2026-05-08 00:41 | 34.80991 | -81.33621 | 9305 ft | 331 kts | 72° |
| 2026-05-08 00:41 | 34.81641 | -81.30966 | 8878 ft | 329 kts | 71° |
| 2026-05-08 00:41 | 34.82615 | -81.28442 | 8422 ft | 327 kts | 58° |
| 2026-05-08 00:41 | 34.83726 | -81.26084 | 8239 ft | 316 kts | 57° |
| 2026-05-08 00:42 | 34.84820 | -81.23787 | 7922 ft | 312 kts | 57° |
| 2026-05-08 00:42 | 34.85894 | -81.21538 | 7764 ft | 301 kts | 57° |
| 2026-05-08 00:42 | 34.86931 | -81.19379 | 7633 ft | 290 kts | 57° |
| 2026-05-08 00:42 | 34.87931 | -81.17301 | 7510 ft | 278 kts | 57° |
| 2026-05-08 00:43 | 34.88885 | -81.15302 | 7380 ft | 267 kts | 57° |
| 2026-05-08 00:43 | 34.89799 | -81.13368 | 7169 ft | 260 kts | 58° |
| 2026-05-08 00:43 | 34.90707 | -81.11473 | 6859 ft | 259 kts | 57° |
| 2026-05-08 00:43 | 34.91610 | -81.09588 | 6568 ft | 257 kts | 57° |
| 2026-05-08 00:44 | 34.92509 | -81.07721 | 6287 ft | 254 kts | 57° |
| 2026-05-08 00:44 | 34.93397 | -81.05874 | 5994 ft | 251 kts | 57° |
| 2026-05-08 00:44 | 34.94268 | -81.04051 | 5718 ft | 248 kts | 57° |
| 2026-05-08 00:44 | 34.95125 | -81.02241 | 5424 ft | 246 kts | 57° |
| 2026-05-08 00:45 | 34.95970 | -81.00449 | 5157 ft | 242 kts | 57° |
| 2026-05-08 00:45 | 34.96784 | -80.98703 | 4887 ft | 239 kts | 57° |
| 2026-05-08 00:45 | 34.97592 | -80.96948 | 4615 ft | 235 kts | 57° |
| 2026-05-08 00:45 | 34.98383 | -80.95225 | 4336 ft | 231 kts | 58° |
| 2026-05-08 00:46 | 34.99154 | -80.93533 | 4108 ft | 226 kts | 57° |
| 2026-05-08 00:46 | 35.00100 | -80.92071 | 3991 ft | 216 kts | 31° |
| 2026-05-08 00:46 | 35.01437 | -80.91554 | 3987 ft | 194 kts | 355° |
| 2026-05-08 00:46 | 35.02613 | -80.92133 | 3998 ft | 181 kts | 322° |
| 2026-05-08 00:47 | 35.03614 | -80.93047 | 3844 ft | 179 kts | 332° |
| 2026-05-08 00:47 | 35.04767 | -80.93555 | 3654 ft | 175 kts | 347° |
| 2026-05-08 00:47 | 35.05957 | -80.93801 | 3445 ft | 173 kts | 352° |
| 2026-05-08 00:47 | 35.07147 | -80.93952 | 3219 ft | 171 kts | 355° |
| 2026-05-08 00:48 | 35.08309 | -80.94068 | 2999 ft | 168 kts | 356° |
| 2026-05-08 00:48 | 35.09461 | -80.94173 | 2782 ft | 163 kts | 358° |
| 2026-05-08 00:48 | 35.10576 | -80.94271 | 2564 ft | 159 kts | 358° |
| 2026-05-08 00:48 | 35.11654 | -80.94364 | 2405 ft | 152 kts | 359° |
| 2026-05-08 00:49 | 35.12683 | -80.94447 | 2161 ft | 139 kts | 359° |
| 2026-05-08 00:49 | 35.13605 | -80.94521 | 1980 ft | 129 kts | 359° |
| 2026-05-08 00:49 | 35.14476 | -80.94595 | 1807 ft | 124 kts | 360° |
| 2026-05-08 00:49 | 35.15330 | -80.94670 | 1674 ft | 123 kts | 359° |
| 2026-05-08 00:50 | 35.16199 | -80.94746 | 1476 ft | 128 kts | 358° |
| 2026-05-08 00:50 | 35.17103 | -80.94820 | 1306 ft | 130 kts | 358° |
| 2026-05-08 00:50 | 35.18005 | -80.94907 | 1174 ft | 128 kts | 359° |
| 2026-05-08 00:50 | 35.18892 | -80.94989 | 1009 ft | 126 kts | 357° |
| 2026-05-08 00:51 | 35.19759 | -80.95060 | 819 ft | 124 kts | 358° |
| 2026-05-08 00:51 | 35.20598 | -80.95136 | 742 ft | 110 kts | 356° |
| 2026-05-08 00:51 | 35.21224 | -80.95189 | 737 ft | 69 kts | 356° |
| 2026-05-08 00:51 | 35.21600 | -80.95220 | 739 ft | 45 kts | 356° |
| 2026-05-08 00:52 | 35.21826 | -80.95230 | 742 ft | 23 kts | 8° |
| 2026-05-08 00:52 | 35.21936 | -80.95194 | 740 ft | 12 kts | 19° |
| 2026-05-08 00:52 | 35.22021 | -80.95145 | 737 ft | 12 kts | 37° |
| 2026-05-08 00:52 | 35.22010 | -80.95062 | 733 ft | 13 kts | 150° |
| 2026-05-08 00:53 | 35.21924 | -80.95048 | 734 ft | 7 kts | 175° |
| 2026-05-08 00:53 | 35.21916 | -80.95047 | 734 ft | 2 kts | 175° |
| 2026-05-08 00:53 | 35.21886 | -80.95036 | 734 ft | 8 kts | 150° |
| 2026-05-08 00:53 | 35.21868 | -80.94969 | 733 ft | 10 kts | 87° |
| 2026-05-08 00:54 | 35.21874 | -80.94879 | 733 ft | 11 kts | 85° |
| 2026-05-08 00:54 | 35.21880 | -80.94784 | 733 ft | 11 kts | 84° |
| 2026-05-08 00:54 | 35.21903 | -80.94694 | 732 ft | 11 kts | 40° |
| 2026-05-08 00:54 | 35.21950 | -80.94663 | 732 ft | 7 kts | 20° |
| 2026-05-08 00:55 | 35.21976 | -80.94659 | 732 ft | 2 kts | 5° |
| 2026-05-08 00:55 | 35.21981 | -80.94659 | 732 ft | 0 kts | 5° |
| 2026-05-08 00:56 | 35.21980 | -80.94659 | 732 ft | 0 kts | 5° |